Weather at Morn Farm Helipad (Private)

Public forecast

Using degrees Celsius for public forecast. Weather courtesy of forecast.io.

Closest aviation weather report (METAR) to Morn Farm Helipad (Private)

Closest report is RNAS Yeovilton, 23.6 nm (43.6 km) NNW. Retrieved 2021/01/20 21:42 UTC (0 seconds ago):

EGDY 202142Z 27016KT 9999 FEW019 BKN050 05/05 Q0977 NOSIG RMK BLU BLU

Closest aviation forecast (TAF) to Morn Farm Helipad (Private)

Forecast is more than 12 hours old.

Closest forecast is RNAS Yeovilton, 23.6 nm (43.6 km) NNW. Retrieved 2020/10/05 06:30 UTC (4 months ago):

TAF TAF EGDY 051025Z 0506/0518 CNL